sensor_id;sensor_type;location;lat;lon;timestamp;temperature;humidity
8914;DHT22;4492;48.736;9.092;2022-10-16T00:01:12;14.10;99.90
8914;DHT22;4492;48.736;9.092;2022-10-16T00:03:40;14.10;99.90
8914;DHT22;4492;48.736;9.092;2022-10-16T00:06:05;14.00;99.90
8914;DHT22;4492;48.736;9.092;2022-10-16T00:08:31;14.00;99.90
8914;DHT22;4492;48.736;9.092;2022-10-16T00:11:06;14.00;99.90
8914;DHT22;4492;48.736;9.092;2022-10-16T00:13:33;14.00;99.90
8914;DHT22;4492;48.736;9.092;2022-10-16T00:16:00;14.00;99.90
8914;DHT22;4492;48.736;9.092;2022-10-16T00:18:27;13.90;99.90
8914;DHT22;4492;48.736;9.092;2022-10-16T00:20:53;13.80;99.90
8914;DHT22;4492;48.736;9.092;2022-10-16T00:23:19;13.80;99.90
8914;DHT22;4492;48.736;9.092;2022-10-16T00:25:44;13.80;99.90
8914;DHT22;4492;48.736;9.092;2022-10-16T00:28:10;13.80;99.90
8914;DHT22;4492;48.736;9.092;2022-10-16T00:30:39;13.70;99.90
8914;DHT22;4492;48.736;9.092;2022-10-16T00:33:04;13.70;99.90
8914;DHT22;4492;48.736;9.092;2022-10-16T00:35:31;13.70;99.90
8914;DHT22;4492;48.736;9.092;2022-10-16T00:37:56;13.70;99.90
8914;DHT22;4492;48.736;9.092;2022-10-16T00:40:22;13.70;99.90
8914;DHT22;4492;48.736;9.092;2022-10-16T00:42:47;13.60;99.90
8914;DHT22;4492;48.736;9.092;2022-10-16T00:45:13;13.60;99.90
8914;DHT22;4492;48.736;9.092;2022-10-16T00:47:42;13.60;99.90
8914;DHT22;4492;48.736;9.092;2022-10-16T00:50:31;13.50;99.90
8914;DHT22;4492;48.736;9.092;2022-10-16T00:52:58;13.50;99.90
8914;DHT22;4492;48.736;9.092;2022-10-16T00:55:25;13.50;99.90
8914;DHT22;4492;48.736;9.092;2022-10-16T00:57:51;13.50;99.90
8914;DHT22;4492;48.736;9.092;2022-10-16T01:00:21;13.50;99.90
8914;DHT22;4492;48.736;9.092;2022-10-16T01:02:58;13.50;99.90
8914;DHT22;4492;48.736;9.092;2022-10-16T01:05:33;13.50;99.90
8914;DHT22;4492;48.736;9.092;2022-10-16T01:08:12;13.50;99.90
8914;DHT22;4492;48.736;9.092;2022-10-16T01:10:57;13.50;99.90
8914;DHT22;4492;48.736;9.092;2022-10-16T01:13:38;13.50;99.90
8914;DHT22;4492;48.736;9.092;2022-10-16T01:16:34;13.50;99.90
8914;DHT22;4492;48.736;9.092;2022-10-16T01:21:55;13.60;99.90
8914;DHT22;4492;48.736;9.092;2022-10-16T01:29:31;13.60;99.90
8914;DHT22;4492;48.736;9.092;2022-10-16T01:32:02;13.60;99.90
8914;DHT22;4492;48.736;9.092;2022-10-16T01:34:37;13.60;99.90
8914;DHT22;4492;48.736;9.092;2022-10-16T01:37:10;13.50;99.90
8914;DHT22;4492;48.736;9.092;2022-10-16T01:39:38;13.50;99.90
8914;DHT22;4492;48.736;9.092;2022-10-16T01:42:11;13.50;99.90
8914;DHT22;4492;48.736;9.092;2022-10-16T01:44:38;13.50;99.90
8914;DHT22;4492;48.736;9.092;2022-10-16T01:47:05;13.60;99.90
8914;DHT22;4492;48.736;9.092;2022-10-16T01:49:35;13.60;99.90
8914;DHT22;4492;48.736;9.092;2022-10-16T01:52:06;13.60;99.90
8914;DHT22;4492;48.736;9.092;2022-10-16T01:54:34;13.60;99.90
8914;DHT22;4492;48.736;9.092;2022-10-16T01:57:04;13.60;99.90
8914;DHT22;4492;48.736;9.092;2022-10-16T01:59:32;13.60;99.90
8914;DHT22;4492;48.736;9.092;2022-10-16T02:02:05;13.70;99.90
8914;DHT22;4492;48.736;9.092;2022-10-16T02:04:51;13.60;99.90
8914;DHT22;4492;48.736;9.092;2022-10-16T02:07:18;13.70;99.90
8914;DHT22;4492;48.736;9.092;2022-10-16T02:09:44;13.70;99.90
8914;DHT22;4492;48.736;9.092;2022-10-16T02:12:22;13.70;99.90
8914;DHT22;4492;48.736;9.092;2022-10-16T02:14:49;13.70;99.90
8914;DHT22;4492;48.736;9.092;2022-10-16T02:17:17;13.80;99.90
8914;DHT22;4492;48.736;9.092;2022-10-16T02:19:45;13.80;99.90
8914;DHT22;4492;48.736;9.092;2022-10-16T02:22:22;13.80;99.90
8914;DHT22;4492;48.736;9.092;2022-10-16T02:24:51;13.90;99.90
8914;DHT22;4492;48.736;9.092;2022-10-16T02:30:30;13.90;99.90
8914;DHT22;4492;48.736;9.092;2022-10-16T02:33:00;14.00;99.90
8914;DHT22;4492;48.736;9.092;2022-10-16T02:35:28;14.10;99.90
8914;DHT22;4492;48.736;9.092;2022-10-16T02:37:55;14.10;99.90
8914;DHT22;4492;48.736;9.092;2022-10-16T02:40:22;14.20;99.90
8914;DHT22;4492;48.736;9.092;2022-10-16T02:42:52;14.20;99.90
8914;DHT22;4492;48.736;9.092;2022-10-16T02:45:18;14.10;99.90
8914;DHT22;4492;48.736;9.092;2022-10-16T02:47:44;14.10;99.90
8914;DHT22;4492;48.736;9.092;2022-10-16T02:50:10;14.10;99.90
8914;DHT22;4492;48.736;9.092;2022-10-16T02:52:35;14.10;99.90
8914;DHT22;4492;48.736;9.092;2022-10-16T02:55:01;14.00;99.90
8914;DHT22;4492;48.736;9.092;2022-10-16T02:57:27;14.00;99.90
8914;DHT22;4492;48.736;9.092;2022-10-16T02:59:52;14.00;99.90
8914;DHT22;4492;48.736;9.092;2022-10-16T03:02:18;14.00;99.90
8914;DHT22;4492;48.736;9.092;2022-10-16T03:04:44;14.00;99.90
8914;DHT22;4492;48.736;9.092;2022-10-16T03:07:09;14.00;99.90
8914;DHT22;4492;48.736;9.092;2022-10-16T03:09:35;13.90;99.90
8914;DHT22;4492;48.736;9.092;2022-10-16T03:12:01;13.90;99.90
8914;DHT22;4492;48.736;9.092;2022-10-16T03:14:26;13.90;99.90
8914;DHT22;4492;48.736;9.092;2022-10-16T03:16:52;14.00;99.90
8914;DHT22;4492;48.736;9.092;2022-10-16T03:19:18;14.00;99.90
8914;DHT22;4492;48.736;9.092;2022-10-16T03:21:44;13.90;99.90
8914;DHT22;4492;48.736;9.092;2022-10-16T03:24:10;14.00;99.90
8914;DHT22;4492;48.736;9.092;2022-10-16T03:26:36;13.90;99.90
8914;DHT22;4492;48.736;9.092;2022-10-16T03:29:01;14.00;99.90
8914;DHT22;4492;48.736;9.092;2022-10-16T03:31:28;14.00;99.90
8914;DHT22;4492;48.736;9.092;2022-10-16T03:33:54;14.00;99.90
8914;DHT22;4492;48.736;9.092;2022-10-16T03:36:20;14.00;99.90
8914;DHT22;4492;48.736;9.092;2022-10-16T03:38:45;14.00;99.90
8914;DHT22;4492;48.736;9.092;2022-10-16T03:41:11;14.00;99.90
8914;DHT22;4492;48.736;9.092;2022-10-16T03:43:36;14.00;99.90
8914;DHT22;4492;48.736;9.092;2022-10-16T03:46:02;14.10;99.90
8914;DHT22;4492;48.736;9.092;2022-10-16T03:48:27;14.10;99.90
8914;DHT22;4492;48.736;9.092;2022-10-16T03:50:53;14.10;99.90
8914;DHT22;4492;48.736;9.092;2022-10-16T03:53:18;14.10;99.90
8914;DHT22;4492;48.736;9.092;2022-10-16T03:55:44;14.10;99.90
8914;DHT22;4492;48.736;9.092;2022-10-16T03:58:10;14.10;99.90
8914;DHT22;4492;48.736;9.092;2022-10-16T04:00:40;14.10;99.90
8914;DHT22;4492;48.736;9.092;2022-10-16T04:03:06;14.10;99.90
8914;DHT22;4492;48.736;9.092;2022-10-16T04:05:32;14.10;99.90
8914;DHT22;4492;48.736;9.092;2022-10-16T04:07:57;14.10;99.90
8914;DHT22;4492;48.736;9.092;2022-10-16T04:10:23;14.10;99.90
8914;DHT22;4492;48.736;9.092;2022-10-16T04:12:48;14.10;99.90
8914;DHT22;4492;48.736;9.092;2022-10-16T04:15:14;14.10;99.90
8914;DHT22;4492;48.736;9.092;2022-10-16T04:17:39;14.10;99.90
8914;DHT22;4492;48.736;9.092;2022-10-16T04:20:05;14.10;99.90
8914;DHT22;4492;48.736;9.092;2022-10-16T04:22:31;14.10;99.90
8914;DHT22;4492;48.736;9.092;2022-10-16T04:24:56;14.10;99.90
8914;DHT22;4492;48.736;9.092;2022-10-16T04:27:22;14.10;99.90
8914;DHT22;4492;48.736;9.092;2022-10-16T04:29:47;14.10;99.90
8914;DHT22;4492;48.736;9.092;2022-10-16T04:32:13;14.10;99.90
8914;DHT22;4492;48.736;9.092;2022-10-16T04:34:39;14.10;99.90
8914;DHT22;4492;48.736;9.092;2022-10-16T04:37:05;14.10;99.90
8914;DHT22;4492;48.736;9.092;2022-10-16T04:39:31;14.20;99.90
8914;DHT22;4492;48.736;9.092;2022-10-16T04:41:57;14.20;99.90
8914;DHT22;4492;48.736;9.092;2022-10-16T04:44:22;14.10;99.90
8914;DHT22;4492;48.736;9.092;2022-10-16T04:46:50;14.20;99.90
8914;DHT22;4492;48.736;9.092;2022-10-16T04:49:16;14.20;99.90
8914;DHT22;4492;48.736;9.092;2022-10-16T04:51:41;14.20;99.90
8914;DHT22;4492;48.736;9.092;2022-10-16T04:54:08;14.20;99.90
8914;DHT22;4492;48.736;9.092;2022-10-16T04:56:33;14.20;99.90
8914;DHT22;4492;48.736;9.092;2022-10-16T04:59:05;14.20;99.90
8914;DHT22;4492;48.736;9.092;2022-10-16T05:01:31;14.20;99.90
8914;DHT22;4492;48.736;9.092;2022-10-16T05:03:56;14.20;99.90
8914;DHT22;4492;48.736;9.092;2022-10-16T05:06:21;14.20;99.90
8914;DHT22;4492;48.736;9.092;2022-10-16T05:08:47;14.20;99.90
8914;DHT22;4492;48.736;9.092;2022-10-16T05:11:13;14.20;99.90
8914;DHT22;4492;48.736;9.092;2022-10-16T05:13:38;14.20;99.90
8914;DHT22;4492;48.736;9.092;2022-10-16T05:16:04;14.20;99.90
8914;DHT22;4492;48.736;9.092;2022-10-16T05:18:29;14.20;99.90
8914;DHT22;4492;48.736;9.092;2022-10-16T05:20:55;14.10;99.90
8914;DHT22;4492;48.736;9.092;2022-10-16T05:23:20;14.10;99.90
8914;DHT22;4492;48.736;9.092;2022-10-16T05:25:54;14.10;99.90
8914;DHT22;4492;48.736;9.092;2022-10-16T05:28:20;14.10;99.90
8914;DHT22;4492;48.736;9.092;2022-10-16T05:30:46;14.10;99.90
8914;DHT22;4492;48.736;9.092;2022-10-16T05:33:11;14.00;99.90
8914;DHT22;4492;48.736;9.092;2022-10-16T05:35:37;14.00;99.90
8914;DHT22;4492;48.736;9.092;2022-10-16T05:38:02;13.90;99.90
8914;DHT22;4492;48.736;9.092;2022-10-16T05:40:28;13.90;99.90
8914;DHT22;4492;48.736;9.092;2022-10-16T05:42:56;13.80;99.90
8914;DHT22;4492;48.736;9.092;2022-10-16T05:45:22;13.80;99.90
8914;DHT22;4492;48.736;9.092;2022-10-16T05:47:47;13.80;99.90
8914;DHT22;4492;48.736;9.092;2022-10-16T05:50:13;13.90;99.90
8914;DHT22;4492;48.736;9.092;2022-10-16T05:52:39;13.80;99.90
8914;DHT22;4492;48.736;9.092;2022-10-16T05:55:05;13.80;99.90
8914;DHT22;4492;48.736;9.092;2022-10-16T05:57:30;13.90;99.90
8914;DHT22;4492;48.736;9.092;2022-10-16T05:59:56;13.90;99.90
8914;DHT22;4492;48.736;9.092;2022-10-16T06:02:22;14.00;99.90
8914;DHT22;4492;48.736;9.092;2022-10-16T06:04:47;14.00;99.90
8914;DHT22;4492;48.736;9.092;2022-10-16T06:07:13;14.00;99.90
8914;DHT22;4492;48.736;9.092;2022-10-16T06:09:38;14.10;99.90
8914;DHT22;4492;48.736;9.092;2022-10-16T06:12:04;14.10;99.90
8914;DHT22;4492;48.736;9.092;2022-10-16T06:14:29;14.10;99.90
8914;DHT22;4492;48.736;9.092;2022-10-16T06:16:55;14.20;99.90
8914;DHT22;4492;48.736;9.092;2022-10-16T06:19:20;14.20;99.90
8914;DHT22;4492;48.736;9.092;2022-10-16T06:21:46;14.30;99.90
8914;DHT22;4492;48.736;9.092;2022-10-16T06:24:12;14.30;99.90
8914;DHT22;4492;48.736;9.092;2022-10-16T06:26:37;14.40;99.90
8914;DHT22;4492;48.736;9.092;2022-10-16T06:29:03;14.40;99.90
8914;DHT22;4492;48.736;9.092;2022-10-16T06:31:29;14.50;99.90
8914;DHT22;4492;48.736;9.092;2022-10-16T06:33:57;14.50;99.90
8914;DHT22;4492;48.736;9.092;2022-10-16T06:36:24;14.50;99.90
8914;DHT22;4492;48.736;9.092;2022-10-16T06:38:50;14.60;99.90
8914;DHT22;4492;48.736;9.092;2022-10-16T06:41:18;14.50;99.90
8914;DHT22;4492;48.736;9.092;2022-10-16T06:43:44;14.70;99.90
8914;DHT22;4492;48.736;9.092;2022-10-16T06:46:12;14.70;99.90
8914;DHT22;4492;48.736;9.092;2022-10-16T06:48:38;14.80;99.90
8914;DHT22;4492;48.736;9.092;2022-10-16T06:51:13;14.90;99.90
8914;DHT22;4492;48.736;9.092;2022-10-16T06:53:59;15.00;99.90
8914;DHT22;4492;48.736;9.092;2022-10-16T06:56:26;15.00;99.90
8914;DHT22;4492;48.736;9.092;2022-10-16T06:58:53;15.00;99.90
8914;DHT22;4492;48.736;9.092;2022-10-16T07:01:20;15.00;99.90
8914;DHT22;4492;48.736;9.092;2022-10-16T07:03:47;15.10;99.90
8914;DHT22;4492;48.736;9.092;2022-10-16T07:06:15;15.10;99.90
8914;DHT22;4492;48.736;9.092;2022-10-16T07:08:42;15.20;99.90
8914;DHT22;4492;48.736;9.092;2022-10-16T07:11:14;15.20;99.90
8914;DHT22;4492;48.736;9.092;2022-10-16T07:13:42;15.30;99.90
8914;DHT22;4492;48.736;9.092;2022-10-16T07:16:16;15.40;99.90
8914;DHT22;4492;48.736;9.092;2022-10-16T07:18:42;15.40;99.90
8914;DHT22;4492;48.736;9.092;2022-10-16T07:21:13;15.40;99.90
8914;DHT22;4492;48.736;9.092;2022-10-16T07:23:39;15.40;99.90
8914;DHT22;4492;48.736;9.092;2022-10-16T07:26:05;15.40;99.90
8914;DHT22;4492;48.736;9.092;2022-10-16T07:28:32;15.40;99.90
8914;DHT22;4492;48.736;9.092;2022-10-16T07:31:09;15.40;99.90
8914;DHT22;4492;48.736;9.092;2022-10-16T07:33:37;15.40;99.90
8914;DHT22;4492;48.736;9.092;2022-10-16T07:36:04;15.30;99.90
8914;DHT22;4492;48.736;9.092;2022-10-16T07:38:29;15.30;99.90
8914;DHT22;4492;48.736;9.092;2022-10-16T07:41:00;15.30;99.90
8914;DHT22;4492;48.736;9.092;2022-10-16T07:43:26;15.40;99.90
8914;DHT22;4492;48.736;9.092;2022-10-16T07:45:52;15.50;99.90
8914;DHT22;4492;48.736;9.092;2022-10-16T07:48:18;15.50;99.90
8914;DHT22;4492;48.736;9.092;2022-10-16T07:50:45;15.50;99.90
8914;DHT22;4492;48.736;9.092;2022-10-16T07:53:11;15.60;99.90
8914;DHT22;4492;48.736;9.092;2022-10-16T07:55:37;15.60;99.90
8914;DHT22;4492;48.736;9.092;2022-10-16T07:58:02;15.70;99.90
8914;DHT22;4492;48.736;9.092;2022-10-16T08:00:28;15.70;99.90
8914;DHT22;4492;48.736;9.092;2022-10-16T08:02:54;15.80;99.90
8914;DHT22;4492;48.736;9.092;2022-10-16T08:05:20;15.90;99.90
8914;DHT22;4492;48.736;9.092;2022-10-16T08:07:49;16.00;99.90
8914;DHT22;4492;48.736;9.092;2022-10-16T08:10:16;16.10;99.90
8914;DHT22;4492;48.736;9.092;2022-10-16T08:12:42;16.20;99.90
8914;DHT22;4492;48.736;9.092;2022-10-16T08:15:08;16.40;99.90
8914;DHT22;4492;48.736;9.092;2022-10-16T08:17:34;16.50;99.90
8914;DHT22;4492;48.736;9.092;2022-10-16T08:20:00;16.70;99.90
8914;DHT22;4492;48.736;9.092;2022-10-16T08:22:26;16.90;99.90
8914;DHT22;4492;48.736;9.092;2022-10-16T08:24:51;17.00;99.90
8914;DHT22;4492;48.736;9.092;2022-10-16T08:27:17;17.10;99.90
8914;DHT22;4492;48.736;9.092;2022-10-16T08:29:42;17.10;99.90
8914;DHT22;4492;48.736;9.092;2022-10-16T08:32:08;17.20;99.90
8914;DHT22;4492;48.736;9.092;2022-10-16T08:34:33;17.30;99.90
8914;DHT22;4492;48.736;9.092;2022-10-16T08:36:59;17.50;99.90
8914;DHT22;4492;48.736;9.092;2022-10-16T08:39:25;17.60;99.90
8914;DHT22;4492;48.736;9.092;2022-10-16T08:47:30;17.60;99.90
8914;DHT22;4492;48.736;9.092;2022-10-16T08:50:09;17.60;99.90
8914;DHT22;4492;48.736;9.092;2022-10-16T08:52:39;17.60;99.90
8914;DHT22;4492;48.736;9.092;2022-10-16T08:55:06;17.60;99.90
8914;DHT22;4492;48.736;9.092;2022-10-16T08:57:32;17.50;99.90
8914;DHT22;4492;48.736;9.092;2022-10-16T09:00:11;17.50;99.90
8914;DHT22;4492;48.736;9.092;2022-10-16T09:02:44;17.60;99.90
8914;DHT22;4492;48.736;9.092;2022-10-16T09:14:20;18.00;99.90
8914;DHT22;4492;48.736;9.092;2022-10-16T09:16:57;18.20;99.90
8914;DHT22;4492;48.736;9.092;2022-10-16T09:19:36;18.20;99.90
8914;DHT22;4492;48.736;9.092;2022-10-16T09:22:12;18.40;99.90
8914;DHT22;4492;48.736;9.092;2022-10-16T09:24:39;18.60;99.90
8914;DHT22;4492;48.736;9.092;2022-10-16T09:27:09;18.80;99.90
8914;DHT22;4492;48.736;9.092;2022-10-16T09:29:35;18.80;99.90
8914;DHT22;4492;48.736;9.092;2022-10-16T09:32:11;18.70;99.90
8914;DHT22;4492;48.736;9.092;2022-10-16T09:34:48;19.10;99.90
8914;DHT22;4492;48.736;9.092;2022-10-16T09:37:17;19.20;99.90
8914;DHT22;4492;48.736;9.092;2022-10-16T09:39:51;19.20;99.90
8914;DHT22;4492;48.736;9.092;2022-10-16T09:42:31;19.20;99.90
8914;DHT22;4492;48.736;9.092;2022-10-16T09:44:58;19.10;99.90
8914;DHT22;4492;48.736;9.092;2022-10-16T09:47:26;19.10;99.90
8914;DHT22;4492;48.736;9.092;2022-10-16T09:49:56;19.20;99.90
8914;DHT22;4492;48.736;9.092;2022-10-16T09:52:23;19.30;99.90
8914;DHT22;4492;48.736;9.092;2022-10-16T09:55:12;19.30;99.90
8914;DHT22;4492;48.736;9.092;2022-10-16T09:57:49;19.50;99.90
8914;DHT22;4492;48.736;9.092;2022-10-16T10:00:19;19.80;99.90
8914;DHT22;4492;48.736;9.092;2022-10-16T10:02:45;19.90;99.90
8914;DHT22;4492;48.736;9.092;2022-10-16T10:05:23;20.10;99.90
8914;DHT22;4492;48.736;9.092;2022-10-16T10:08:01;20.20;99.90
8914;DHT22;4492;48.736;9.092;2022-10-16T10:10:39;20.30;99.90
8914;DHT22;4492;48.736;9.092;2022-10-16T10:13:19;20.30;99.90
8914;DHT22;4492;48.736;9.092;2022-10-16T10:15:45;20.30;99.90
8914;DHT22;4492;48.736;9.092;2022-10-16T10:18:18;20.40;99.90
8914;DHT22;4492;48.736;9.092;2022-10-16T10:20:45;20.50;99.90
8914;DHT22;4492;48.736;9.092;2022-10-16T10:23:22;20.60;99.90
8914;DHT22;4492;48.736;9.092;2022-10-16T10:26:18;20.70;99.90
8914;DHT22;4492;48.736;9.092;2022-10-16T10:28:58;20.80;99.90
8914;DHT22;4492;48.736;9.092;2022-10-16T10:31:49;20.80;99.90
8914;DHT22;4492;48.736;9.092;2022-10-16T10:34:59;20.90;99.90
8914;DHT22;4492;48.736;9.092;2022-10-16T10:37:34;21.10;99.90
8914;DHT22;4492;48.736;9.092;2022-10-16T10:40:11;21.30;99.90
8914;DHT22;4492;48.736;9.092;2022-10-16T10:42:46;21.30;99.90
8914;DHT22;4492;48.736;9.092;2022-10-16T10:45:18;21.40;99.90
8914;DHT22;4492;48.736;9.092;2022-10-16T10:50:42;21.60;99.90
8914;DHT22;4492;48.736;9.092;2022-10-16T10:53:29;21.70;99.90
8914;DHT22;4492;48.736;9.092;2022-10-16T10:56:16;21.80;98.50
8914;DHT22;4492;48.736;9.092;2022-10-16T10:58:55;21.80;98.50
8914;DHT22;4492;48.736;9.092;2022-10-16T11:09:45;21.80;97.40
8914;DHT22;4492;48.736;9.092;2022-10-16T11:12:36;21.70;97.50
8914;DHT22;4492;48.736;9.092;2022-10-16T11:15:14;21.60;97.60
8914;DHT22;4492;48.736;9.092;2022-10-16T11:17:48;21.40;97.30
8914;DHT22;4492;48.736;9.092;2022-10-16T11:20:23;21.30;98.50
8914;DHT22;4492;48.736;9.092;2022-10-16T11:23:10;21.30;98.50
8914;DHT22;4492;48.736;9.092;2022-10-16T11:25:39;21.30;98.80
8914;DHT22;4492;48.736;9.092;2022-10-16T11:28:24;21.40;98.20
8914;DHT22;4492;48.736;9.092;2022-10-16T11:33:41;21.60;98.70
8914;DHT22;4492;48.736;9.092;2022-10-16T11:38:49;21.80;98.60
8914;DHT22;4492;48.736;9.092;2022-10-16T11:49:52;22.40;97.60
8914;DHT22;4492;48.736;9.092;2022-10-16T11:52:28;22.50;97.60
8914;DHT22;4492;48.736;9.092;2022-10-16T11:55:15;22.60;96.80
8914;DHT22;4492;48.736;9.092;2022-10-16T11:57:54;22.60;96.70
8914;DHT22;4492;48.736;9.092;2022-10-16T12:00:27;22.40;96.50
8914;DHT22;4492;48.736;9.092;2022-10-16T12:03:03;22.50;97.30
8914;DHT22;4492;48.736;9.092;2022-10-16T12:08:15;22.80;96.40
8914;DHT22;4492;48.736;9.092;2022-10-16T12:10:43;23.00;96.70
8914;DHT22;4492;48.736;9.092;2022-10-16T12:16:19;23.20;94.40
8914;DHT22;4492;48.736;9.092;2022-10-16T12:18:46;23.30;94.70
8914;DHT22;4492;48.736;9.092;2022-10-16T12:21:14;23.30;94.50
8914;DHT22;4492;48.736;9.092;2022-10-16T12:23:51;23.30;94.70
8914;DHT22;4492;48.736;9.092;2022-10-16T12:26:32;23.30;95.20
8914;DHT22;4492;48.736;9.092;2022-10-16T12:31:56;23.20;94.60
8914;DHT22;4492;48.736;9.092;2022-10-16T12:34:38;23.10;95.10
8914;DHT22;4492;48.736;9.092;2022-10-16T12:37:11;23.00;95.70
8914;DHT22;4492;48.736;9.092;2022-10-16T12:39:38;22.90;96.50
8914;DHT22;4492;48.736;9.092;2022-10-16T12:42:19;22.90;95.90
8914;DHT22;4492;48.736;9.092;2022-10-16T12:44:45;22.90;95.70
8914;DHT22;4492;48.736;9.092;2022-10-16T12:49:58;22.70;94.40
8914;DHT22;4492;48.736;9.092;2022-10-16T12:52:35;22.60;94.00
8914;DHT22;4492;48.736;9.092;2022-10-16T12:55:01;22.40;94.60
8914;DHT22;4492;48.736;9.092;2022-10-16T13:05:54;21.80;95.90
8914;DHT22;4492;48.736;9.092;2022-10-16T13:19:29;22.10;96.70
8914;DHT22;4492;48.736;9.092;2022-10-16T13:22:03;22.30;95.20
8914;DHT22;4492;48.736;9.092;2022-10-16T13:24:42;22.30;95.40
8914;DHT22;4492;48.736;9.092;2022-10-16T13:27:46;22.30;95.30
8914;DHT22;4492;48.736;9.092;2022-10-16T13:30:18;22.20;95.40
8914;DHT22;4492;48.736;9.092;2022-10-16T13:32:50;22.30;95.30
8914;DHT22;4492;48.736;9.092;2022-10-16T13:35:26;22.40;95.50
8914;DHT22;4492;48.736;9.092;2022-10-16T13:38:13;22.40;95.20
8914;DHT22;4492;48.736;9.092;2022-10-16T13:40:57;22.50;95.30
8914;DHT22;4492;48.736;9.092;2022-10-16T13:43:46;22.50;95.60
8914;DHT22;4492;48.736;9.092;2022-10-16T13:46:17;22.70;95.60
8914;DHT22;4492;48.736;9.092;2022-10-16T13:48:43;22.80;95.10
8914;DHT22;4492;48.736;9.092;2022-10-16T13:51:17;22.80;94.90
8914;DHT22;4492;48.736;9.092;2022-10-16T13:53:44;22.70;94.80
8914;DHT22;4492;48.736;9.092;2022-10-16T13:56:12;22.60;95.00
8914;DHT22;4492;48.736;9.092;2022-10-16T13:58:38;22.50;95.40
8914;DHT22;4492;48.736;9.092;2022-10-16T14:01:27;22.30;95.40
8914;DHT22;4492;48.736;9.092;2022-10-16T14:03:51;22.10;96.30
8914;DHT22;4492;48.736;9.092;2022-10-16T14:06:21;22.00;95.80
8914;DHT22;4492;48.736;9.092;2022-10-16T14:08:59;22.00;96.00
8914;DHT22;4492;48.736;9.092;2022-10-16T14:11:25;22.00;96.40
8914;DHT22;4492;48.736;9.092;2022-10-16T14:13:52;22.10;96.40
8914;DHT22;4492;48.736;9.092;2022-10-16T14:16:20;22.10;96.60
8914;DHT22;4492;48.736;9.092;2022-10-16T14:18:55;22.10;96.90
8914;DHT22;4492;48.736;9.092;2022-10-16T14:21:21;22.10;97.00
8914;DHT22;4492;48.736;9.092;2022-10-16T14:23:47;22.10;96.90
8914;DHT22;4492;48.736;9.092;2022-10-16T14:26:15;22.20;97.00
8914;DHT22;4492;48.736;9.092;2022-10-16T14:28:42;22.10;97.10
8914;DHT22;4492;48.736;9.092;2022-10-16T14:31:34;22.10;97.10
8914;DHT22;4492;48.736;9.092;2022-10-16T14:34:02;22.10;96.90
8914;DHT22;4492;48.736;9.092;2022-10-16T14:36:28;22.10;97.00
8914;DHT22;4492;48.736;9.092;2022-10-16T14:38:59;22.10;97.00
8914;DHT22;4492;48.736;9.092;2022-10-16T14:41:26;22.10;96.70
8914;DHT22;4492;48.736;9.092;2022-10-16T14:43:55;22.00;96.80
8914;DHT22;4492;48.736;9.092;2022-10-16T14:46:27;22.00;97.10
8914;DHT22;4492;48.736;9.092;2022-10-16T14:49:00;21.90;97.50
8914;DHT22;4492;48.736;9.092;2022-10-16T14:51:26;22.00;97.60
8914;DHT22;4492;48.736;9.092;2022-10-16T14:53:51;21.90;97.20
8914;DHT22;4492;48.736;9.092;2022-10-16T14:56:25;22.00;97.60
8914;DHT22;4492;48.736;9.092;2022-10-16T14:58:53;22.00;97.40
8914;DHT22;4492;48.736;9.092;2022-10-16T15:01:20;22.00;97.20
8914;DHT22;4492;48.736;9.092;2022-10-16T15:03:46;22.10;97.10
8914;DHT22;4492;48.736;9.092;2022-10-16T15:06:13;22.10;97.10
8914;DHT22;4492;48.736;9.092;2022-10-16T15:08:39;22.20;97.00
8914;DHT22;4492;48.736;9.092;2022-10-16T15:11:05;22.00;97.20
8914;DHT22;4492;48.736;9.092;2022-10-16T15:13:34;22.10;97.40
8914;DHT22;4492;48.736;9.092;2022-10-16T15:16:00;22.00;97.50
8914;DHT22;4492;48.736;9.092;2022-10-16T15:18:26;21.90;98.00
8914;DHT22;4492;48.736;9.092;2022-10-16T15:20:52;21.70;98.20
8914;DHT22;4492;48.736;9.092;2022-10-16T15:23:19;21.70;98.50
8914;DHT22;4492;48.736;9.092;2022-10-16T15:25:47;21.60;98.80
8914;DHT22;4492;48.736;9.092;2022-10-16T15:28:14;21.60;99.20
8914;DHT22;4492;48.736;9.092;2022-10-16T15:30:41;21.40;99.30
8914;DHT22;4492;48.736;9.092;2022-10-16T15:33:12;21.30;99.40
8914;DHT22;4492;48.736;9.092;2022-10-16T15:35:39;21.20;99.30
8914;DHT22;4492;48.736;9.092;2022-10-16T15:38:04;21.10;99.40
8914;DHT22;4492;48.736;9.092;2022-10-16T15:40:30;21.00;99.50
8914;DHT22;4492;48.736;9.092;2022-10-16T15:42:55;21.00;99.80
8914;DHT22;4492;48.736;9.092;2022-10-16T15:45:21;20.90;99.80
8914;DHT22;4492;48.736;9.092;2022-10-16T15:47:46;20.80;99.80
8914;DHT22;4492;48.736;9.092;2022-10-16T15:50:13;20.70;99.90
8914;DHT22;4492;48.736;9.092;2022-10-16T15:52:40;20.60;99.90
8914;DHT22;4492;48.736;9.092;2022-10-16T15:55:10;20.50;99.90
8914;DHT22;4492;48.736;9.092;2022-10-16T15:57:36;20.40;99.90
8914;DHT22;4492;48.736;9.092;2022-10-16T16:00:05;20.30;99.90
8914;DHT22;4492;48.736;9.092;2022-10-16T16:02:32;20.20;99.90
8914;DHT22;4492;48.736;9.092;2022-10-16T16:04:57;20.10;99.90
8914;DHT22;4492;48.736;9.092;2022-10-16T16:07:23;19.90;99.90
8914;DHT22;4492;48.736;9.092;2022-10-16T16:09:48;19.80;99.90
8914;DHT22;4492;48.736;9.092;2022-10-16T16:12:14;19.60;99.90
8914;DHT22;4492;48.736;9.092;2022-10-16T16:14:40;19.50;99.90
8914;DHT22;4492;48.736;9.092;2022-10-16T16:17:05;19.30;99.90
8914;DHT22;4492;48.736;9.092;2022-10-16T16:19:31;19.10;99.90
8914;DHT22;4492;48.736;9.092;2022-10-16T16:21:57;18.90;99.90
8914;DHT22;4492;48.736;9.092;2022-10-16T16:24:22;18.70;99.90
8914;DHT22;4492;48.736;9.092;2022-10-16T16:26:48;18.50;99.90
8914;DHT22;4492;48.736;9.092;2022-10-16T16:29:15;18.30;99.90
8914;DHT22;4492;48.736;9.092;2022-10-16T16:31:41;18.20;99.90
8914;DHT22;4492;48.736;9.092;2022-10-16T16:34:07;18.00;99.90
8914;DHT22;4492;48.736;9.092;2022-10-16T16:36:34;17.80;99.90
8914;DHT22;4492;48.736;9.092;2022-10-16T16:39:00;17.70;99.90
8914;DHT22;4492;48.736;9.092;2022-10-16T16:41:28;17.50;99.90
8914;DHT22;4492;48.736;9.092;2022-10-16T16:43:55;17.30;99.90
8914;DHT22;4492;48.736;9.092;2022-10-16T16:46:21;17.20;99.90
8914;DHT22;4492;48.736;9.092;2022-10-16T16:48:47;17.10;99.90
8914;DHT22;4492;48.736;9.092;2022-10-16T16:51:17;17.00;99.90
8914;DHT22;4492;48.736;9.092;2022-10-16T16:53:46;16.90;99.90
8914;DHT22;4492;48.736;9.092;2022-10-16T16:56:12;16.70;99.90
8914;DHT22;4492;48.736;9.092;2022-10-16T16:58:38;16.60;99.90
8914;DHT22;4492;48.736;9.092;2022-10-16T17:01:03;16.50;99.90
8914;DHT22;4492;48.736;9.092;2022-10-16T17:03:33;16.40;99.90
8914;DHT22;4492;48.736;9.092;2022-10-16T17:06:01;16.30;99.90
8914;DHT22;4492;48.736;9.092;2022-10-16T17:08:27;16.10;99.90
8914;DHT22;4492;48.736;9.092;2022-10-16T17:10:54;16.10;99.90
8914;DHT22;4492;48.736;9.092;2022-10-16T17:13:32;16.00;99.90
8914;DHT22;4492;48.736;9.092;2022-10-16T17:16:04;15.90;99.90
8914;DHT22;4492;48.736;9.092;2022-10-16T17:18:30;15.80;99.90
8914;DHT22;4492;48.736;9.092;2022-10-16T17:21:00;15.70;99.90
8914;DHT22;4492;48.736;9.092;2022-10-16T17:23:26;15.60;99.90
8914;DHT22;4492;48.736;9.092;2022-10-16T17:25:53;15.50;99.90
8914;DHT22;4492;48.736;9.092;2022-10-16T17:28:18;15.50;99.90
8914;DHT22;4492;48.736;9.092;2022-10-16T17:30:44;15.40;99.90
8914;DHT22;4492;48.736;9.092;2022-10-16T17:33:11;15.30;99.90
8914;DHT22;4492;48.736;9.092;2022-10-16T17:35:42;15.20;99.90
8914;DHT22;4492;48.736;9.092;2022-10-16T17:38:09;15.10;99.90